Terminal Aerodrome Forecast
Issued by NWS Twin Cities, MN

Home | Current Version | Previous Version | Text Only | Print | Product List | Glossary Off
Versions: 1 2 3 4 5 6 7 8 9 10 11 12 13 14 15 16 17

000
FTUS43 KMPX 302051 AAA
TAFSTC
TAF AMD
KSTC 302051Z 3021/3118 28014G21KT P6SM FEW070
     FM310000 28006KT P6SM SKC
     FM311600 30010G16KT P6SM SKC=

USA.gov is the U.S. government's official web portal to all federal, state and local government web resources and services.